Decoded Metar for KCLL (COLLEGE STATION in TX, USA) (IATA:CLL) | Meteo·Mobile Aviation Weather
aviador You're here:

KCLL Decoded Metar

COLLEGE STATION in TX, USA
Report Time2018-10-20 21:22:00
UTC Time2018-10-20 21:52:10
Flight Rules mvfr MVFR
Wind350° at 12 kt
W.Decomp.*RWY 34: 12.0 kt HW 0.8 kt RCW
RWY 04: 6.7 kt HW 9.9 kt LCW
RWY 28: 5.3 kt HW 10.8 kt RCW
W.Rank350° ranks 9
Current wind is above 350° avg. (9.3)
Visibility9999 m
Phenomena:N/A
Clouds:Overcast 013 Hf
Expected CloudBase > 800 ft AGL from Temp-Dew spread
Ceiling1,300 ft
Temp18°C (ISA +4)
Dew Point16°C (88% RH)
AAT15.7°C
QNH1021 hPa
Density Alt715 ft
Elevation315 ft
Report Wrong Elevation
Raw Report
KCLL 202122Z 35012KT 10SM OVC013 18/16 A3014=

Extra information for KCLL:More info

Metar Taf Metar & Taf Last 4 Metars F.Rules Stats Wind Profile Meteogram Temp Stats Airport Information Weather charts Add Link Nearby VenuesMetar ALERT Operation Metar Decoded Social comments

AIRNAV info for KCLL